Terminal Aerodrome Forecast
Issued by NWS

Home | Current Version | Previous Version | Text Only | Print | Product List | Glossary On
Versions: 1 2 3 4 5 6 7 8 9 10 11 12 13 14 15 16 17 18 19 20 21 22 23 24 25 26 27 28 29 30 31 32 33 34 35 36 37 38 39 40 41 42 43 44 45 46 47 48 49 50
599
FTUS45 KBOU 290119 AAA
TAFAPA
TAF AMD
KAPA 290119Z 2901/2924 08007KT P6SM FEW080 SCT120
     FM290300 35013G22KT P6SM SCT080 BKN120
     FM290500 33011KT P6SM SCT070 BKN110
     FM290700 18006KT P6SM SCT070 BKN090
     FM290900 35014G24KT P6SM VCSH SCT050 BKN070
     FM291300 03011KT P6SM SCT040 BKN060 OVC080
     FM291800 07010G15KT P6SM SCT060 BKN080
      TEMPO 2920/2924 VRB18G30KT -TSRA BKN060CB=

USA.gov is the U.S. government's official web portal to all federal, state and local government web resources and services.